Terminal Aerodrome Forecast
Issued by NWS Upton, NY

Home | Current Version | Previous Version | Text Only | Print | Product List | Glossary On
Versions: 1 2 3 4 5 6 7 8 9 10 11 12 13 14 15 16 17 18 19 20 21 22 23 24 25 26 27 28 29 30 31
000
FTUS41 KOKX 140534
TAFBDR
TAF
KBDR 140534Z 1406/1506 25010KT 3SM -SN BKN040 OVC100
     FM140900 27007KT 2SM -SN OVC024
     FM141100 36005KT 2SM -SN OVC010
     FM141400 33008KT P6SM BKN015
     FM141600 31009KT P6SM BKN060
     FM141800 30012G20KT P6SM SCT140
     FM150200 30010KT P6SM FEW200=

USA.gov is the U.S. government's official web portal to all federal, state and local government web resources and services.